createdAt,value
2019-03-26T00:00:58.042Z,36.17
2019-03-26T00:06:03.177Z,44.87
2019-03-26T00:11:08.700Z,36.87
2019-03-26T00:16:14.325Z,39.23
2019-03-26T00:21:19.544Z,44.17
2019-03-26T00:26:43.827Z,33.87
2019-03-26T00:31:49.392Z,39.60
2019-03-26T00:36:54.814Z,31.87
2019-03-26T00:41:59.837Z,48.53
2019-03-26T00:47:05.436Z,34.03
2019-03-26T00:52:29.874Z,34.80
2019-03-26T00:57:35.288Z,35.00
2019-03-26T01:02:40.639Z,39.03
2019-03-26T01:07:45.900Z,34.20
2019-03-26T01:12:51.164Z,44.00
2019-03-26T01:17:56.482Z,32.13
2019-03-26T01:23:01.690Z,49.80
2019-03-26T01:28:06.949Z,39.13
2019-03-26T01:33:12.172Z,44.63
2019-03-26T01:38:36.791Z,36.17
2019-03-26T01:43:42.152Z,42.27
2019-03-26T01:48:47.512Z,50.00
2019-03-26T01:54:11.804Z,38.57
2019-03-26T01:59:16.814Z,44.03
2019-03-26T02:04:22.249Z,41.33
2019-03-26T02:09:28.909Z,43.97
2019-03-26T02:14:53.922Z,39.40
2019-03-26T02:20:00.013Z,53.93
2019-03-26T02:25:07.028Z,45.60
2019-03-26T02:30:12.867Z,53.10
2019-03-26T02:35:19.390Z,48.07
2019-03-26T02:40:25.220Z,48.97
2019-03-26T02:45:30.959Z,62.53
2019-03-26T02:50:36.641Z,61.60
2019-03-26T02:55:42.467Z,51.43
2019-03-26T03:00:48.142Z,50.40
2019-03-26T03:05:53.711Z,65.03
2019-03-26T03:10:59.174Z,52.90
2019-03-26T03:16:04.599Z,58.33
2019-03-26T03:21:21.862Z,66.03
2019-03-26T03:26:27.069Z,63.77
2019-03-26T03:31:32.351Z,52.93
2019-03-26T03:36:44.008Z,58.43
2019-03-26T03:41:51.216Z,63.37
2019-03-26T03:46:58.747Z,55.70
2019-03-26T03:52:04.666Z,55.67
2019-03-26T03:57:12.276Z,51.03
2019-03-26T04:07:43.876Z,60.70
2019-03-26T04:13:16.431Z,53.70
2019-03-26T04:18:21.884Z,67.17
2019-03-26T04:23:27.545Z,71.70
2019-03-26T04:28:33.147Z,68.40
2019-03-26T04:33:39.055Z,65.17
2019-03-26T04:38:45.072Z,69.97
2019-03-26T04:43:50.928Z,69.60
2019-03-26T04:48:57.041Z,81.73
2019-03-26T04:54:03.411Z,71.87
2019-03-26T04:59:09.920Z,53.47
2019-03-26T05:04:15.577Z,54.63
2019-03-26T05:09:21.005Z,48.03
2019-03-26T05:14:45.473Z,43.00
2019-03-26T05:19:51.092Z,51.43
2019-03-26T05:24:56.711Z,48.90
2019-03-26T05:30:02.189Z,51.87
2019-03-26T05:35:08.472Z,50.57
2019-03-26T05:40:33.409Z,62.57
2019-03-26T05:45:38.885Z,54.57
2019-03-26T05:51:03.605Z,48.50
2019-03-26T05:56:09.188Z,42.83
2019-03-26T06:01:26.254Z,51.43
2019-03-26T06:06:32.036Z,51.17
2019-03-26T06:11:38.037Z,44.00
2019-03-26T06:16:43.550Z,48.60
2019-03-26T06:21:49.165Z,46.40
2019-03-26T06:27:14.246Z,53.60
2019-03-26T06:32:19.838Z,53.93
2019-03-26T06:37:25.561Z,55.47
2019-03-26T06:42:37.542Z,63.13
2019-03-26T06:48:19.475Z,51.27
2019-03-26T06:53:26.084Z,52.70
2019-03-26T06:58:31.563Z,45.50
2019-03-26T07:03:36.927Z,44.67
2019-03-26T07:09:01.373Z,60.43
2019-03-26T07:14:06.718Z,47.53
2019-03-26T07:19:11.695Z,44.53
2019-03-26T07:24:16.605Z,51.97
2019-03-26T07:29:40.925Z,52.60
2019-03-26T07:34:46.178Z,40.80
2019-03-26T07:39:51.344Z,41.73
2019-03-26T07:45:15.825Z,38.67
2019-03-26T07:50:21.052Z,38.63
2019-03-26T07:55:45.722Z,35.37
2019-03-26T08:00:50.802Z,31.70
2019-03-26T08:05:55.785Z,32.93
2019-03-26T08:11:01.025Z,36.73
2019-03-26T08:16:25.599Z,38.40
2019-03-26T08:21:30.940Z,36.73
2019-03-26T08:26:55.274Z,45.23
2019-03-26T08:32:19.648Z,34.67
2019-03-26T08:37:44.334Z,36.90
2019-03-26T08:42:49.746Z,33.73
2019-03-26T08:47:54.780Z,31.17
2019-03-26T08:52:59.884Z,29.37
2019-03-26T08:58:05.223Z,37.13
2019-03-26T09:03:10.247Z,35.37
2019-03-26T09:08:34.485Z,31.20
2019-03-26T09:13:59.170Z,28.93
2019-03-26T09:19:15.928Z,32.43
2019-03-26T09:24:20.968Z,25.90
2019-03-26T09:29:25.964Z,24.73
2019-03-26T09:34:31.498Z,25.03
2019-03-26T09:39:55.940Z,22.00
2019-03-26T09:45:01.089Z,25.77
2019-03-26T09:50:08.861Z,19.57
2019-03-26T09:55:13.973Z,21.40
2019-03-26T10:00:19.002Z,17.77
2019-03-26T10:05:24.042Z,21.87
2019-03-26T10:10:29.050Z,18.50
2019-03-26T10:15:34.118Z,21.13
2019-03-26T10:20:58.495Z,19.87
2019-03-26T10:26:03.588Z,21.70
2019-03-26T10:31:08.594Z,15.03
2019-03-26T10:36:13.522Z,16.83
2019-03-26T10:41:18.880Z,17.77
2019-03-26T10:46:44.596Z,15.60
2019-03-26T10:51:50.196Z,22.90
2019-03-26T10:56:55.194Z,14.90
2019-03-26T11:02:00.489Z,16.23
2019-03-26T11:07:24.827Z,12.13
2019-03-26T11:12:30.290Z,17.17
2019-03-26T11:17:35.516Z,10.93
2019-03-26T11:22:40.801Z,9.83
2019-03-26T11:28:05.406Z,11.27
2019-03-26T11:33:10.758Z,13.03
2019-03-26T11:38:34.942Z,14.23
2019-03-26T11:43:59.145Z,10.40
2019-03-26T11:49:15.768Z,15.23
2019-03-26T11:54:20.848Z,12.73
2019-03-26T11:59:45.605Z,11.17
2019-03-26T12:18:22.032Z,12.90
2019-03-26T12:23:26.986Z,13.10
2019-03-26T12:28:32.066Z,10.90
2019-03-26T12:33:37.011Z,6.90
2019-03-26T12:38:42.066Z,7.10
2019-03-26T12:43:47.349Z,5.63
2019-03-26T12:48:52.358Z,9.67
2019-03-26T12:53:57.665Z,4.93
2019-03-26T12:59:02.670Z,9.57
2019-03-26T13:04:13.306Z,6.53
2019-03-26T13:09:14.640Z,5.80
2019-03-26T13:14:19.770Z,5.67
2019-03-26T13:19:25.091Z,5.47
2019-03-26T13:24:30.283Z,3.90
2019-03-26T13:29:54.501Z,6.23
2019-03-26T13:34:59.790Z,7.00
2019-03-26T13:40:06.259Z,6.67
2019-03-26T13:45:11.706Z,8.07
2019-03-26T13:50:17.179Z,8.63
2019-03-26T13:55:22.163Z,5.90
2019-03-26T14:00:30.377Z,3.87
2019-03-26T14:05:35.732Z,6.57
2019-03-26T14:10:41.596Z,7.33
2019-03-26T14:15:47.405Z,3.47
2019-03-26T14:20:52.556Z,6.33
2019-03-26T14:25:57.683Z,1.77
2019-03-26T14:31:03.050Z,3.73
2019-03-26T14:36:08.442Z,3.83
2019-03-26T14:41:13.529Z,4.87
2019-03-26T14:46:18.556Z,8.27
2019-03-26T14:51:24.070Z,4.93
2019-03-26T14:56:29.317Z,7.40
2019-03-26T15:01:34.282Z,7.53
2019-03-26T15:06:39.585Z,4.00
2019-03-26T15:11:44.564Z,5.37
2019-03-26T15:16:59.750Z,2.93
2019-03-26T15:22:04.667Z,3.00
2019-03-26T15:27:09.835Z,7.50
2019-03-26T15:32:14.827Z,5.07
2019-03-26T15:43:48.659Z,4.53
2019-03-26T15:48:54.233Z,5.17
2019-03-26T15:53:59.815Z,5.63
2019-03-26T15:59:05.291Z,5.10
2019-03-26T16:04:10.267Z,3.83
2019-03-26T16:09:15.598Z,6.67
2019-03-26T16:14:20.585Z,3.77
2019-03-26T16:19:32.139Z,2.73
2019-03-26T16:24:32.124Z,3.00
2019-03-26T16:29:37.280Z,6.17
2019-03-26T16:34:42.695Z,3.73
2019-03-26T16:39:47.846Z,3.00
2019-03-26T16:44:52.861Z,5.17
2019-03-26T16:49:57.780Z,12.70
2019-03-26T16:55:02.700Z,9.93
2019-03-26T17:00:08.891Z,14.17
2019-03-26T17:05:17.027Z,6.87
2019-03-26T17:10:21.957Z,7.67
2019-03-26T17:15:27.438Z,9.43
2019-03-26T17:20:32.798Z,9.43
2019-03-26T17:25:39.341Z,6.57
2019-03-26T17:30:44.880Z,6.93
2019-03-26T17:35:50.021Z,5.67
2019-03-26T17:40:55.539Z,4.97
2019-03-26T17:46:00.910Z,4.17
2019-03-26T17:51:06.068Z,5.10
2019-03-26T17:56:11.384Z,4.13
2019-03-26T18:01:16.428Z,2.93
2019-03-26T18:06:21.339Z,24.50
2019-03-26T18:11:26.819Z,19.00
2019-03-26T18:16:31.999Z,15.53
2019-03-26T18:21:50.559Z,16.03
2019-03-26T18:26:43.815Z,10.43
2019-03-26T18:31:49.239Z,9.97
2019-03-26T18:36:54.568Z,9.13
2019-03-26T18:41:59.933Z,15.73
2019-03-26T18:47:05.214Z,9.27
2019-03-26T18:52:10.470Z,16.40
2019-03-26T18:57:15.442Z,26.17
2019-03-26T19:02:21.184Z,26.33
2019-03-26T19:07:26.451Z,22.20
2019-03-26T19:12:31.429Z,20.87
2019-03-26T19:17:36.640Z,14.53
2019-03-26T19:22:42.010Z,14.00
2019-03-26T19:27:47.014Z,12.97
2019-03-26T19:32:52.273Z,14.03
2019-03-26T19:38:16.909Z,13.30
2019-03-26T19:43:22.353Z,12.10
2019-03-26T19:48:27.407Z,19.27
2019-03-26T19:53:32.394Z,11.80
2019-03-26T19:58:37.515Z,7.63
2019-03-26T20:03:42.471Z,8.10
2019-03-26T20:08:47.765Z,10.37
2019-03-26T20:13:54.369Z,12.00
2019-03-26T20:18:59.312Z,9.13
2019-03-26T20:24:04.573Z,9.60
2019-03-26T20:29:10.946Z,8.83
2019-03-26T20:34:16.263Z,8.53
2019-03-26T20:39:21.615Z,11.97
2019-03-26T20:44:26.826Z,10.57
2019-03-26T20:49:31.957Z,13.50
2019-03-26T20:54:56.569Z,9.70
2019-03-26T21:00:12.741Z,17.73
2019-03-26T21:05:18.030Z,15.83
2019-03-26T21:10:22.960Z,21.57
2019-03-26T21:15:28.323Z,20.73
2019-03-26T21:20:33.680Z,21.40
2019-03-26T21:25:38.912Z,21.20
2019-03-26T21:30:44.057Z,21.97
2019-03-26T21:35:49.238Z,22.30
2019-03-26T21:40:54.127Z,18.17
2019-03-26T21:45:59.228Z,19.93
2019-03-26T21:51:04.497Z,31.93
2019-03-26T21:56:09.692Z,27.03
2019-03-26T22:01:14.864Z,19.13
2019-03-26T22:06:20.200Z,29.00
2019-03-26T22:11:25.116Z,27.50
2019-03-26T22:16:30.045Z,26.33
2019-03-26T22:21:35.184Z,33.93
2019-03-26T22:26:40.088Z,20.07
2019-03-26T22:31:45.410Z,19.83
2019-03-26T22:36:50.524Z,23.93
2019-03-26T22:41:55.813Z,26.33
2019-03-26T22:47:01.101Z,25.77
2019-03-26T22:52:06.154Z,19.33
2019-03-26T22:57:11.494Z,23.73
2019-03-26T23:02:16.958Z,21.00
2019-03-26T23:07:22.457Z,21.77
2019-03-26T23:12:27.626Z,26.73
2019-03-26T23:17:32.732Z,16.70
2019-03-26T23:22:37.646Z,17.97
2019-03-26T23:27:42.795Z,19.93
2019-03-26T23:33:07.272Z,18.70
2019-03-26T23:38:12.537Z,18.17
2019-03-26T23:43:37.132Z,13.93
2019-03-26T23:48:42.519Z,25.23
2019-03-26T23:53:48.960Z,17.10
2019-03-26T23:58:54.431Z,17.27
